Time;durP1;ratioP1;P1;durP2;ratioP2;P2;SDS_P1;SDS_P2;PMS_P1;PMS_P2;Temp;Humidity;BMP_temperature;BMP_pressure;BME280_temperature;BME280_humidity;BME280_pressure;Samples;Min_cycle;Max_cycle;Signal;HPM_P1;HPM_P2
2021/12/24 00:00:27;;;;;;;11.33;8.70;;;;;;;5.33;100.00;100086.81;5021053;28;20469;-69
2021/12/24 00:02:54;;;;;;;13.37;9.40;;;;;;;5.48;100.00;100084.97;5026818;28;20454;-69
2021/12/24 00:05:20;;;;;;;9.93;8.70;;;;;;;5.43;100.00;100074.84;5020309;28;20208;-69
2021/12/24 00:07:46;;;;;;;9.87;8.60;;;;;;;5.24;100.00;100034.72;5024765;28;20443;-69
2021/12/24 00:10:12;;;;;;;10.90;8.20;;;;;;;5.57;100.00;100086.50;5028028;28;21206;-67
2021/12/24 00:12:43;;;;;;;10.87;9.00;;;;;;;5.46;100.00;100067.53;5027855;28;20192;-69
2021/12/24 00:15:48;;;;;;;9.63;8.07;;;;;;;5.08;100.00;99995.84;5027701;28;20780;-68
2021/12/24 00:18:05;;;;;;;10.33;8.47;;;;;;;5.51;100.00;100058.00;5021696;28;20449;-69
2021/12/24 00:36:22;;;;;;;11.67;8.60;;;;;;;5.71;100.00;100062.75;5028136;28;20441;-68
2021/12/24 00:38:48;;;;;;;10.80;9.30;;;;;;;5.50;100.00;100031.59;5028966;28;20431;-69
2021/12/24 00:41:14;;;;;;;10.30;8.40;;;;;;;5.77;100.00;100067.31;5023677;28;20214;-71
2021/12/24 00:43:40;;;;;;;10.30;8.80;;;;;;;5.38;100.00;100001.94;5029399;28;21203;-71
2021/12/24 00:46:05;;;;;;;10.30;8.03;;;;;;;5.61;100.00;100053.22;5025270;28;20454;-71
2021/12/24 00:48:31;;;;;;;8.83;7.93;;;;;;;5.68;100.00;100055.13;5023327;28;20259;-71
2021/12/24 00:51:18;;;;;;;10.07;7.63;;;;;;;5.68;100.00;100055.97;5024775;28;20198;-71
2021/12/24 00:56:11;;;;;;;8.67;7.30;;;;;;;5.73;100.00;100071.34;5026989;28;20673;-71
2021/12/24 00:58:37;;;;;;;7.80;7.00;;;;;;;5.83;100.00;100071.91;5022525;28;20185;-71
2021/12/24 01:01:05;;;;;;;10.27;7.80;;;;;;;5.42;100.00;100000.59;5019767;28;20431;-71
2021/12/24 01:03:30;;;;;;;8.87;7.20;;;;;;;5.46;100.00;100015.16;5022123;28;20488;-72
2021/12/24 01:05:56;;;;;;;7.57;6.43;;;;;;;5.82;100.00;100063.09;5023552;28;20469;-71
2021/12/24 01:08:21;;;;;;;7.73;7.03;;;;;;;5.81;100.00;100063.25;5028182;28;20187;-71
2021/12/24 01:10:56;;;;;;;8.20;7.40;;;;;;;5.61;100.00;100026.63;5026271;28;20436;-71
2021/12/24 01:13:24;;;;;;;7.70;6.70;;;;;;;5.85;100.00;100067.22;5024227;28;20190;-71
2021/12/24 01:16:17;;;;;;;7.20;6.50;;;;;;;5.61;100.00;100029.28;5021045;28;20439;-71
2021/12/24 01:18:58;;;;;;;9.43;7.70;;;;;;;5.41;100.00;99985.66;5022637;28;20513;-71
2021/12/24 01:24:03;;;;;;;6.90;6.20;;;;;;;5.89;100.00;100060.50;5023868;28;20476;-69
2021/12/24 01:42:50;;;;;;;6.90;5.60;;;;;;;5.95;100.00;100046.47;5021772;28;20939;-71
2021/12/24 01:45:25;;;;;;;4.53;4.13;;;;;;;6.04;100.00;100045.34;5025755;28;20478;-71
2021/12/24 01:47:58;;;;;;;4.73;4.33;;;;;;;5.96;100.00;100036.63;5025027;28;20970;-72
2021/12/24 01:50:27;;;;;;;5.50;4.50;;;;;;;5.55;100.00;99955.50;5023688;28;20431;-71
2021/12/24 01:52:54;;;;;;;5.87;5.00;;;;;;;5.62;100.00;99983.03;5019773;28;20985;-69
2021/12/24 01:55:20;;;;;;;5.33;4.90;;;;;;;5.68;100.00;99970.81;5023604;28;20463;-69
2021/12/24 01:57:46;;;;;;;6.20;5.60;;;;;;;6.05;100.00;100035.53;5019922;28;20500;-69
2021/12/24 02:00:28;;;;;;;5.40;4.50;;;;;;;5.76;100.00;99984.00;5019735;28;20565;-69
2021/12/24 02:02:54;;;;;;;5.43;4.93;;;;;;;5.74;100.00;99995.84;5023858;28;20837;-69
2021/12/24 02:05:20;;;;;;;6.30;5.67;;;;;;;5.84;100.00;99993.69;5021576;28;20488;-69
2021/12/24 02:07:46;;;;;;;6.40;5.80;;;;;;;6.02;100.00;100023.41;5022732;28;20454;-69
2021/12/24 02:10:14;;;;;;;6.60;5.90;;;;;;;5.98;100.00;100024.78;5020746;28;20249;-69
2021/12/24 02:12:40;;;;;;;6.10;5.50;;;;;;;5.47;100.00;99939.69;5024945;28;21069;-69
2021/12/24 02:15:12;;;;;;;6.70;6.00;;;;;;;5.99;100.00;100026.47;5020116;28;20489;-69
2021/12/24 02:18:24;;;;;;;5.70;5.20;;;;;;;5.75;100.00;100000.97;5019625;28;20433;-69
2021/12/24 02:28:59;;;;;;;7.20;6.27;;;;;;;5.40;100.00;99928.97;4946062;28;20426;-69
2021/12/24 02:31:26;;;;;;;8.20;5.60;;;;;;;6.01;100.00;100021.75;5008706;28;20442;-69
2021/12/24 02:33:53;;;;;;;6.07;5.50;;;;;;;5.86;100.00;99997.00;5023272;28;20214;-69
2021/12/24 02:36:20;;;;;;;5.17;4.67;;;;;;;5.74;100.00;99966.56;5018070;28;20435;-69
2021/12/24 02:38:46;;;;;;;5.67;3.93;;;;;;;6.02;100.00;100019.94;5019695;28;20442;-69
2021/12/24 02:41:14;;;;;;;5.40;4.90;;;;;;;5.90;100.00;100008.91;5021684;28;20504;-69
2021/12/24 02:43:41;;;;;;;4.47;3.87;;;;;;;5.94;100.00;99993.44;5023714;28;20481;-69
2021/12/24 02:46:15;;;;;;;4.57;4.00;;;;;;;6.07;100.00;99999.69;5016808;28;20818;-69
2021/12/24 02:49:09;;;;;;;4.67;4.23;;;;;;;5.62;100.00;99931.66;5024227;28;20485;-69
2021/12/24 02:54:14;;;;;;;3.60;3.30;;;;;;;5.54;100.00;99903.34;5023966;28;20457;-69
2021/12/24 02:56:46;;;;;;;3.50;3.20;;;;;;;5.62;100.00;99900.56;5018723;28;20446;-69
2021/12/24 02:59:12;;;;;;;4.00;3.70;;;;;;;5.98;100.00;99955.56;5028344;28;20642;-70
2021/12/24 03:01:40;;;;;;;3.70;3.40;;;;;;;6.19;100.00;99983.22;5028177;28;20450;-69
2021/12/24 03:04:06;;;;;;;3.77;3.47;;;;;;;5.83;100.00;99925.53;5023911;28;20553;-69
2021/12/24 03:06:35;;;;;;;2.87;2.67;;;;;;;6.25;100.00;99982.44;5026607;28;20438;-69
2021/12/24 03:09:05;;;;;;;3.40;3.20;;;;;;;5.89;100.00;99914.09;5025395;28;20456;-69
2021/12/24 03:11:31;;;;;;;2.47;2.37;;;;;;;5.88;100.00;99917.78;5028950;28;20857;-69
2021/12/24 03:13:56;;;;;;;2.87;2.67;;;;;;;5.70;100.00;99886.31;5024371;28;20467;-69
2021/12/24 03:16:22;;;;;;;2.57;2.37;;;;;;;6.06;100.00;99928.00;5025666;28;20183;-69
2021/12/24 03:18:48;;;;;;;2.20;2.10;;;;;;;6.38;100.00;99973.75;5025100;28;20202;-69
2021/12/24 03:21:19;;;;;;;2.37;2.27;;;;;;;5.88;100.00;99893.84;5026817;28;20392;-69
2021/12/24 03:26:38;;;;;;;2.60;2.40;;;;;;;6.37;100.00;99975.59;5026167;28;20438;-69
2021/12/24 03:29:06;;;;;;;2.10;2.00;;;;;;;6.40;100.00;99974.41;5025070;28;20926;-69
2021/12/24 03:31:32;;;;;;;2.40;2.30;;;;;;;6.39;100.00;99976.22;5024792;28;20435;-69
2021/12/24 03:33:58;;;;;;;2.90;2.70;;;;;;;6.10;100.00;99932.78;5027230;28;20514;-69
2021/12/24 03:36:26;;;;;;;2.17;1.97;;;;;;;6.41;100.00;99970.72;5031249;28;20916;-69
2021/12/24 03:38:51;;;;;;;1.90;1.80;;;;;;;6.43;100.00;99968.69;5029282;28;20176;-69
2021/12/24 03:41:17;;;;;;;2.10;2.00;;;;;;;6.14;100.00;99929.72;5029349;28;20981;-69
2021/12/24 03:43:42;;;;;;;1.87;1.77;;;;;;;6.35;100.00;99951.00;5025478;28;20223;-69
2021/12/24 03:46:13;;;;;;;2.43;2.20;;;;;;;6.41;100.00;99960.06;5025514;28;20275;-70
2021/12/24 03:48:49;;;;;;;2.43;2.33;;;;;;;6.30;100.00;99948.06;5024221;28;20562;-69
2021/12/24 03:56:28;;;;;;;2.20;2.10;;;;;;;6.30;100.00;99929.44;5024239;28;21157;-69
2021/12/24 03:58:53;;;;;;;1.97;1.87;;;;;;;6.15;100.00;99910.88;5018877;28;25183;-69
2021/12/24 04:01:19;;;;;;;2.50;2.40;;;;;;;6.43;100.00;99964.19;5027676;28;20456;-70
2021/12/24 04:03:44;;;;;;;2.80;2.60;;;;;;;6.00;100.00;99896.84;5023138;28;25098;-69
2021/12/24 04:06:10;;;;;;;2.30;2.20;;;;;;;6.47;100.00;99959.28;5023787;28;25152;-69
2021/12/24 04:08:35;;;;;;;2.00;1.90;;;;;;;5.98;100.00;99881.03;5025283;28;25059;-69
2021/12/24 04:11:01;;;;;;;2.30;2.20;;;;;;;6.13;100.00;99904.91;5025523;28;25116;-69
2021/12/24 04:13:26;;;;;;;2.03;1.93;;;;;;;6.27;100.00;99917.31;5027980;28;25062;-69
2021/12/24 04:15:52;;;;;;;2.37;2.20;;;;;;;6.21;100.00;99896.78;5024110;28;20679;-69
2021/12/24 04:18:29;;;;;;;2.37;2.27;;;;;;;6.50;100.00;99945.56;5024876;28;25136;-69
2021/12/24 04:26:26;;;;;;;2.93;2.73;;;;;;;6.52;100.00;99949.69;5023856;28;20489;-69
2021/12/24 04:28:52;;;;;;;2.70;2.50;;;;;;;5.89;100.00;99858.22;5025687;28;20446;-69
2021/12/24 04:31:22;;;;;;;2.90;2.70;;;;;;;6.21;100.00;99907.44;5025465;28;25066;-69
2021/12/24 04:33:49;;;;;;;2.67;2.30;;;;;;;6.08;100.00;99868.25;5026451;28;25082;-69
2021/12/24 05:03:06;;;;;;;3.23;3.00;;;;;;;6.37;100.00;99917.00;5028362;28;25106;-69
2021/12/24 05:05:46;;;;;;;2.87;2.67;;;;;;;6.21;100.00;99894.13;5025230;28;20929;-69
2021/12/24 05:08:27;;;;;;;3.23;2.93;;;;;;;6.47;100.00;99932.63;5026491;28;25116;-69
2021/12/24 05:10:53;;;;;;;2.87;2.63;;;;;;;6.37;100.00;99910.88;5026385;28;25118;-69
2021/12/24 05:13:20;;;;;;;2.83;2.63;;;;;;;6.37;100.00;99911.69;5018645;28;20444;-69
2021/12/24 05:15:50;;;;;;;3.20;3.00;;;;;;;6.63;100.00;99948.34;5020773;28;20196;-69
2021/12/24 05:18:34;;;;;;;2.73;2.53;;;;;;;6.74;100.00;99952.28;5025542;28;20926;-69
2021/12/24 05:23:43;;;;;;;1.90;1.80;;;;;;;6.56;100.00;99964.25;5028423;28;20499;-69
2021/12/24 05:26:09;;;;;;;1.60;1.50;;;;;;;6.43;100.00;99958.84;5023257;28;20429;-69
2021/12/24 05:28:36;;;;;;;1.83;1.73;;;;;;;6.26;100.00;99934.31;5022752;28;23317;-69
2021/12/24 05:31:02;;;;;;;1.37;1.27;;;;;;;6.32;100.00;99940.72;5019146;28;20442;-68
2021/12/24 05:33:28;;;;;;;1.37;1.27;;;;;;;6.29;100.00;99951.75;5020698;28;21106;-69
2021/12/24 05:35:53;;;;;;;1.73;1.63;;;;;;;6.26;100.00;99952.97;5024963;28;20208;-69
2021/12/24 05:38:19;;;;;;;1.33;1.23;;;;;;;6.23;100.00;99952.53;5022639;28;20533;-69
2021/12/24 05:40:44;;;;;;;2.07;1.10;;;;;;;6.06;100.00;99934.16;5018790;28;20718;-69
2021/12/24 05:43:10;;;;;;;1.13;1.00;;;;;;;6.36;100.00;99973.94;5020659;28;20195;-69
2021/12/24 05:45:37;;;;;;;0.90;0.90;;;;;;;6.17;100.00;99934.66;5022428;28;20215;-69
2021/12/24 05:48:03;;;;;;;1.07;1.03;;;;;;;6.28;100.00;99969.59;5023191;28;20943;-70
2021/12/24 05:50:28;;;;;;;0.90;0.90;;;;;;;5.82;100.00;99905.25;5013128;28;20445;-69
2021/12/24 05:52:54;;;;;;;0.90;0.90;;;;;;;5.69;100.00;99859.88;5017751;28;20188;-70
2021/12/24 05:55:19;;;;;;;0.80;0.80;;;;;;;6.19;100.00;99946.78;5017716;28;20217;-69
2021/12/24 05:57:45;;;;;;;0.97;0.93;;;;;;;6.28;100.00;99942.16;5023296;28;20222;-70
2021/12/24 06:00:11;;;;;;;0.83;0.83;;;;;;;6.15;100.00;99934.03;5023860;28;20214;-69
2021/12/24 06:02:36;;;;;;;0.70;0.70;;;;;;;5.77;100.00;99878.38;5020957;28;20195;-69
2021/12/24 06:05:02;;;;;;;0.90;0.90;;;;;;;6.07;100.00;99942.97;5019609;28;20497;-70
2021/12/24 06:07:28;;;;;;;1.40;1.30;;;;;;;6.12;100.00;99924.59;5016720;28;20211;-69
2021/12/24 06:09:53;;;;;;;1.20;1.10;;;;;;;6.15;100.00;99934.03;5026170;28;20620;-69
2021/12/24 06:12:19;;;;;;;1.00;1.00;;;;;;;6.38;100.00;99957.78;5023056;28;20337;-70
2021/12/24 06:14:46;;;;;;;1.57;1.20;;;;;;;5.94;100.00;99921.56;5017902;28;25124;-69
2021/12/24 06:17:16;;;;;;;1.30;1.20;;;;;;;6.02;100.00;99948.88;5020374;28;20563;-70
2021/12/24 06:19:42;;;;;;;1.90;1.47;;;;;;;5.52;100.00;99869.94;5018017;28;20853;-69
2021/12/24 06:22:07;;;;;;;1.50;1.40;;;;;;;5.64;100.00;99879.06;5020210;28;20438;-69
2021/12/24 06:24:33;;;;;;;1.17;1.07;;;;;;;6.14;100.00;99975.81;5024349;28;25062;-69
2021/12/24 06:26:58;;;;;;;1.03;0.93;;;;;;;6.18;100.00;99973.59;5019807;28;20193;-69
2021/12/24 06:29:24;;;;;;;2.90;1.30;;;;;;;5.53;100.00;99899.03;5017917;28;20469;-69
2021/12/24 06:31:51;;;;;;;1.33;1.23;;;;;;;5.89;100.00;99976.16;5022091;28;20193;-69
2021/12/24 06:34:17;;;;;;;1.13;1.13;;;;;;;5.90;100.00;99987.59;5027547;28;20211;-70
2021/12/24 06:36:44;;;;;;;1.53;1.20;;;;;;;5.95;100.00;99985.25;5018900;28;20434;-69
2021/12/24 06:39:10;;;;;;;1.87;1.20;;;;;;;5.72;100.00;99944.66;5018859;28;20467;-69
2021/12/24 06:41:36;;;;;;;1.50;1.40;;;;;;;5.88;100.00;99977.16;5019035;28;21116;-69
2021/12/24 06:44:04;;;;;;;1.50;1.40;;;;;;;5.83;100.00;99952.13;5022308;28;20474;-69
2021/12/24 06:46:30;;;;;;;1.40;1.30;;;;;;;5.96;100.00;99980.75;5026531;28;20189;-69
2021/12/24 06:48:56;;;;;;;1.00;1.00;;;;;;;5.90;100.00;99971.63;5019812;28;25176;-69
2021/12/24 06:51:26;;;;;;;1.60;1.50;;;;;;;5.73;100.00;99956.94;5032184;28;25148;-70
2021/12/24 06:53:52;;;;;;;1.40;1.30;;;;;;;5.89;100.00;99975.31;5022271;28;25176;-68
2021/12/24 06:56:18;;;;;;;1.50;1.40;;;;;;;5.69;100.00;99958.31;5020009;28;25102;-69
2021/12/24 06:58:43;;;;;;;1.50;1.40;;;;;;;5.65;100.00;99931.28;5022086;28;20466;-69
2021/12/24 07:01:09;;;;;;;1.57;1.47;;;;;;;5.91;100.00;100007.09;5020190;28;20824;-69
2021/12/24 07:03:34;;;;;;;1.67;1.57;;;;;;;5.43;100.00;99946.38;5024547;28;20387;-69
2021/12/24 07:06:00;;;;;;;2.00;1.90;;;;;;;5.98;100.00;100016.81;5020731;28;20298;-70
2021/12/24 07:08:25;;;;;;;2.10;2.00;;;;;;;5.89;100.00;100012.59;5028027;28;20200;-69
2021/12/24 07:10:51;;;;;;;1.80;1.70;;;;;;;5.36;100.00;99938.34;5025209;28;20207;-69
2021/12/24 07:13:17;;;;;;;2.53;2.33;;;;;;;5.19;100.00;99924.41;5018810;28;20633;-69
2021/12/24 07:15:42;;;;;;;2.40;2.30;;;;;;;5.76;100.00;100021.25;5021380;28;20187;-69
2021/12/24 07:18:08;;;;;;;2.73;2.53;;;;;;;5.51;100.00;99988.00;5024900;28;20740;-69
2021/12/24 07:20:33;;;;;;;2.53;2.33;;;;;;;5.46;100.00;99961.97;5026051;28;20218;-68
2021/12/24 07:22:59;;;;;;;3.00;2.80;;;;;;;5.45;100.00;99962.97;5024632;28;20553;-69
2021/12/24 07:25:24;;;;;;;3.30;3.00;;;;;;;5.68;100.00;99978.78;5024821;28;20291;-69
2021/12/24 07:27:49;;;;;;;3.40;3.10;;;;;;;5.66;100.00;99989.59;5022366;28;20183;-69
2021/12/24 07:30:16;;;;;;;3.10;2.90;;;;;;;5.73;100.00;100018.97;5022098;28;20192;-69
2021/12/24 07:32:42;;;;;;;3.70;3.40;;;;;;;5.72;100.00;100008.50;5022442;28;20213;-69
2021/12/24 07:35:09;;;;;;;3.60;3.23;;;;;;;5.75;100.00;100008.13;5023149;28;20447;-69
2021/12/24 07:37:34;;;;;;;3.60;3.30;;;;;;;5.66;100.00;99980.81;5021401;28;20439;-69
2021/12/24 07:40:02;;;;;;;3.37;3.07;;;;;;;5.82;100.00;100009.03;5025574;28;20900;-69
2021/12/24 07:42:28;;;;;;;4.10;3.80;;;;;;;5.46;100.00;99964.63;5021120;28;20351;-69
2021/12/24 07:44:53;;;;;;;3.77;3.47;;;;;;;5.51;100.00;99985.34;5027606;28;20969;-69
2021/12/24 07:47:27;;;;;;;3.70;3.40;;;;;;;5.72;100.00;100041.25;5027880;28;20850;-69
2021/12/24 07:50:01;;;;;;;3.53;3.23;;;;;;;5.60;100.00;100030.28;5027363;28;20176;-68
2021/12/24 07:52:27;;;;;;;3.60;3.30;;;;;;;5.73;100.00;100045.59;5023197;28;20422;-69
2021/12/24 07:54:54;;;;;;;4.00;3.70;;;;;;;5.53;100.00;100060.47;5028637;28;20453;-69
2021/12/24 07:57:20;;;;;;;3.13;2.93;;;;;;;5.69;100.00;100054.13;5027922;28;20187;-69
2021/12/24 07:59:46;;;;;;;3.80;3.30;;;;;;;5.75;100.00;100056.03;5024258;28;20963;-69
2021/12/24 08:02:21;;;;;;;4.00;3.70;;;;;;;5.18;100.00;99962.66;5021778;28;20443;-69
2021/12/24 08:04:46;;;;;;;3.97;3.67;;;;;;;5.36;100.00;100010.13;5028718;28;20691;-69
2021/12/24 08:07:14;;;;;;;3.43;3.23;;;;;;;5.72;100.00;100069.69;5023615;28;20440;-71
2021/12/24 08:09:40;;;;;;;3.20;3.00;;;;;;;5.35;100.00;100010.31;5025426;28;20179;-71
2021/12/24 08:12:08;;;;;;;4.23;3.23;;;;;;;5.60;100.00;100080.00;5015338;28;20918;-69
2021/12/24 08:14:34;;;;;;;3.90;3.60;;;;;;;5.62;100.00;100078.81;5020548;28;20204;-69
2021/12/24 08:17:00;;;;;;;3.90;3.53;;;;;;;4.91;100.00;99987.22;5019608;28;20779;-69
2021/12/24 08:19:26;;;;;;;3.83;3.53;;;;;;;5.54;100.00;100086.88;5020783;28;20545;-68
2021/12/24 08:21:51;;;;;;;4.80;4.40;;;;;;;5.15;100.00;100033.97;5027979;28;20267;-69
2021/12/24 08:24:17;;;;;;;4.60;4.10;;;;;;;5.03;100.00;100012.31;5023867;28;20212;-71
2021/12/24 08:26:42;;;;;;;4.60;4.20;;;;;;;5.31;100.00;100056.91;5025396;28;20208;-70
2021/12/24 08:29:08;;;;;;;4.17;3.87;;;;;;;5.01;100.00;100027.66;5030424;28;20184;-69
2021/12/24 08:31:34;;;;;;;4.90;4.40;;;;;;;5.08;100.00;100031.22;5019475;28;20224;-72
2021/12/24 08:34:01;;;;;;;4.67;4.27;;;;;;;5.06;100.00;100024.44;5020349;28;20229;-75
2021/12/24 08:36:27;;;;;;;4.57;4.17;;;;;;;4.79;100.00;99970.91;5021134;28;20778;-73
2021/12/24 08:38:55;;;;;;;4.33;3.93;;;;;;;5.40;100.00;100107.13;5017076;28;20494;-70
2021/12/24 08:41:20;;;;;;;4.50;4.10;;;;;;;4.82;100.00;100010.41;5026201;28;25163;-72
2021/12/24 08:43:46;;;;;;;4.43;4.03;;;;;;;4.70;100.00;99972.00;5020878;28;20908;-70
2021/12/24 08:46:11;;;;;;;4.43;4.03;;;;;;;4.64;100.00;99988.66;5023997;28;20192;-71
2021/12/24 08:48:37;;;;;;;5.30;4.80;;;;;;;4.84;100.00;100031.47;5026914;28;20183;-73
2021/12/24 08:51:02;;;;;;;5.40;4.87;;;;;;;5.43;100.00;100125.41;5029414;28;20597;-72
2021/12/24 08:53:27;;;;;;;4.70;4.30;;;;;;;5.11;100.00;100078.69;5023218;28;20184;-72
2021/12/24 08:55:53;;;;;;;5.10;4.63;;;;;;;4.92;100.00;100061.47;5021918;28;20195;-71
2021/12/24 08:58:19;;;;;;;4.47;4.07;;;;;;;5.17;100.00;100101.91;5025453;28;20195;-71
2021/12/24 09:00:45;;;;;;;5.30;4.80;;;;;;;5.11;100.00;100105.28;5025387;28;20221;-72
2021/12/24 09:03:10;;;;;;;4.70;4.30;;;;;;;4.94;100.00;100048.78;5027480;28;20450;-71
2021/12/24 09:05:36;;;;;;;5.40;4.90;;;;;;;4.92;100.00;100039.38;5024343;28;20276;-71
2021/12/24 09:08:02;;;;;;;4.83;4.33;;;;;;;5.44;100.00;100120.94;5022952;28;20217;-71
2021/12/24 09:10:28;;;;;;;5.40;4.90;;;;;;;4.84;100.00;100020.84;5022149;28;25111;-71
2021/12/24 09:12:54;;;;;;;4.87;4.07;;;;;;;4.55;100.00;99990.56;5023918;28;20520;-72
2021/12/24 09:15:21;;;;;;;5.37;4.87;;;;;;;5.55;100.00;100146.22;5024847;28;25100;-71
2021/12/24 09:17:47;;;;;;;5.57;4.97;;;;;;;4.20;100.00;99984.09;5027823;28;20452;-71
2021/12/24 09:20:26;;;;;;;5.67;5.17;;;;;;;4.69;100.00;100037.59;5027386;28;25116;-70
2021/12/24 09:22:53;;;;;;;5.90;4.77;;;;;;;5.30;100.00;100143.84;5021854;28;20980;-71
2021/12/24 09:25:20;;;;;;;5.97;5.33;;;;;;;5.13;100.00;100137.84;5026470;28;20471;-70
2021/12/24 09:27:46;;;;;;;6.13;5.60;;;;;;;5.17;100.00;100135.63;5022082;28;25100;-70
2021/12/24 09:30:12;;;;;;;6.07;5.47;;;;;;;4.78;100.00;100086.16;5025425;28;25100;-70
2021/12/24 09:32:37;;;;;;;5.90;5.40;;;;;;;4.97;100.00;100095.44;5021257;28;25089;-69
2021/12/24 09:35:03;;;;;;;5.17;4.67;;;;;;;5.18;100.00;100151.44;5019099;28;20198;-70
2021/12/24 09:37:28;;;;;;;4.97;4.50;;;;;;;5.04;100.00;100149.56;5023523;28;25053;-67
2021/12/24 09:39:54;;;;;;;4.77;4.30;;;;;;;4.85;100.00;100103.03;5019148;28;25093;-70
2021/12/24 09:42:19;;;;;;;4.77;4.27;;;;;;;5.12;100.00;100135.34;5021314;28;20679;-70
2021/12/24 09:44:45;;;;;;;4.40;4.00;;;;;;;5.20;100.00;100146.72;5022944;28;24870;-70
2021/12/24 09:47:10;;;;;;;4.20;3.83;;;;;;;4.95;100.00;100132.84;5023712;28;20265;-70
2021/12/24 09:49:36;;;;;;;5.40;4.40;;;;;;;5.05;100.00;100155.69;5020757;28;20178;-71
2021/12/24 09:52:03;;;;;;;4.10;3.70;;;;;;;5.10;100.00;100172.75;5022097;28;20188;-68
2021/12/24 09:54:30;;;;;;;3.93;3.53;;;;;;;4.94;100.00;100122.38;5003514;28;25120;-70
2021/12/24 09:56:57;;;;;;;4.83;3.63;;;;;;;4.83;100.00;100125.47;5020435;28;25112;-68
2021/12/24 09:59:23;;;;;;;3.70;3.40;;;;;;;5.09;100.00;100178.25;5026202;28;20477;-71
2021/12/24 10:01:58;;;;;;;4.30;3.80;;;;;;;4.99;100.00;100179.31;5021944;28;21108;-69
2021/12/24 10:04:27;;;;;;;3.40;3.10;;;;;;;5.04;100.00;100205.38;5010760;28;25141;-69
2021/12/24 10:07:03;;;;;;;3.73;3.43;;;;;;;4.84;100.00;100153.72;5021889;28;25116;-69
2021/12/24 10:09:31;;;;;;;4.00;3.60;;;;;;;4.91;100.00;100176.72;5020112;28;20449;-71
2021/12/24 10:12:06;;;;;;;3.73;3.43;;;;;;;4.78;100.00;100134.00;5023123;28;25137;-70
2021/12/24 10:14:35;;;;;;;3.13;2.93;;;;;;;5.08;100.00;100227.94;5042034;28;20484;-70
2021/12/24 10:17:04;;;;;;;3.70;3.40;;;;;;;4.47;100.00;100108.31;5028218;28;20967;-70
2021/12/24 10:19:29;;;;;;;4.20;3.90;;;;;;;4.68;100.00;100160.78;5019458;28;20552;-70
2021/12/24 10:22:01;;;;;;;4.50;4.10;;;;;;;5.24;100.00;100208.38;5025023;28;20447;-70
2021/12/24 10:24:27;;;;;;;3.80;3.33;;;;;;;4.47;100.00;100136.69;5021774;28;21917;-70
2021/12/24 10:26:55;;;;;;;4.50;3.80;;;;;;;4.41;100.00;100093.09;5029404;28;20681;-70
2021/12/24 10:29:30;;;;;;;4.20;3.40;;;;;;;4.95;100.00;100196.63;5023402;28;21013;-69
2021/12/24 10:31:58;;;;;;;3.40;3.10;;;;;;;4.78;100.00;100159.75;5016126;28;25179;-70
2021/12/24 10:34:44;;;;;;;3.90;3.60;;;;;;;5.08;100.00;100217.28;5026508;28;20531;-70
2021/12/24 10:37:25;;;;;;;3.80;3.33;;;;;;;5.27;100.00;100212.50;5027146;28;25099;-70
2021/12/24 10:39:56;;;;;;;3.37;3.13;;;;;;;4.66;100.00;100138.09;5028087;28;20982;-69
2021/12/24 10:42:35;;;;;;;3.50;3.20;;;;;;;4.87;100.00;100161.31;5025723;28;20511;-70
2021/12/24 10:45:03;;;;;;;5.10;3.53;;;;;;;5.12;100.00;100201.81;5026241;28;20479;-70
2021/12/24 10:47:32;;;;;;;3.60;3.10;;;;;;;4.93;100.00;100179.22;5029659;28;25187;-69
2021/12/24 10:50:25;;;;;;;3.70;3.10;;;;;;;5.02;100.00;100199.41;5026888;28;20301;-69
2021/12/24 10:55:27;;;;;;;2.90;2.70;;;;;;;5.12;100.00;100218.59;5028049;28;20466;-71
2021/12/24 10:57:53;;;;;;;3.60;3.30;;;;;;;4.94;100.00;100226.84;5027094;28;20496;-69
2021/12/24 11:00:55;;;;;;;3.63;3.40;;;;;;;4.96;100.00;100224.03;5026312;28;20548;-70
2021/12/24 11:03:25;;;;;;;2.70;2.50;;;;;;;5.22;100.00;100226.34;5024198;28;20962;-71
2021/12/24 11:06:03;;;;;;;2.80;2.60;;;;;;;4.84;100.00;100180.28;5027801;28;25106;-70
2021/12/24 11:08:29;;;;;;;3.53;3.23;;;;;;;4.67;100.00;100166.28;5035533;28;20458;-70
2021/12/24 11:11:00;;;;;;;3.13;2.90;;;;;;;4.38;100.00;100112.03;5027945;28;20441;-70
2021/12/24 11:13:33;;;;;;;3.17;2.87;;;;;;;5.09;100.00;100226.09;5025515;28;20295;-71
2021/12/24 11:16:06;;;;;;;3.80;3.50;;;;;;;5.14;100.00;100221.91;5029110;28;20504;-71
2021/12/24 11:18:39;;;;;;;3.80;3.50;;;;;;;4.94;100.00;100234.00;5031505;28;20437;-71
2021/12/24 11:21:10;;;;;;;4.17;3.77;;;;;;;4.89;100.00;100202.66;5029406;28;25185;-69
2021/12/24 11:23:39;;;;;;;4.20;3.70;;;;;;;4.97;100.00;100204.41;5030774;28;25119;-69
2021/12/24 11:26:06;;;;;;;4.40;4.00;;;;;;;5.13;100.00;100240.69;5028482;28;20983;-70
2021/12/24 11:28:33;;;;;;;4.03;3.63;;;;;;;5.16;100.00;100241.16;5025192;28;21233;-70
2021/12/24 11:31:04;;;;;;;3.60;3.30;;;;;;;5.16;100.00;100227.03;5029816;28;20435;-70
2021/12/24 11:33:32;;;;;;;4.40;4.00;;;;;;;5.22;100.00;100239.63;5034332;28;20474;-71
2021/12/24 11:36:00;;;;;;;3.60;3.30;;;;;;;3.87;100.00;100010.00;5027778;28;25113;-71
2021/12/24 11:38:32;;;;;;;5.67;4.27;;;;;;;5.00;100.00;100196.09;5034090;28;25176;-72
2021/12/24 11:40:59;;;;;;;4.83;4.33;;;;;;;5.08;100.00;100224.44;5035612;28;20485;-71
2021/12/24 11:43:29;;;;;;;7.37;5.07;;;;;;;5.15;100.00;100243.97;5028005;28;20462;-71
2021/12/24 11:45:59;;;;;;;8.20;5.00;;;;;;;4.90;100.00;100184.88;5026779;28;20541;-71
2021/12/24 11:48:27;;;;;;;6.80;4.67;;;;;;;4.88;100.00;100186.88;5018197;28;25099;-74
2021/12/24 11:50:54;;;;;;;6.50;4.13;;;;;;;5.15;100.00;100250.16;5023026;28;20515;-73
2021/12/24 11:53:20;;;;;;;7.40;5.00;;;;;;;5.21;100.00;100227.34;5025247;28;25138;-73
2021/12/24 11:55:48;;;;;;;8.37;5.07;;;;;;;4.87;100.00;100153.34;5024561;28;20575;-72
2021/12/24 11:58:24;;;;;;;4.90;4.40;;;;;;;5.32;100.00;100253.50;5027927;28;20464;-73
2021/12/24 12:00:55;;;;;;;3.90;3.50;;;;;;;5.18;100.00;100255.13;5030929;28;20477;-70
2021/12/24 12:03:33;;;;;;;4.33;3.93;;;;;;;5.36;100.00;100257.47;5031414;28;21222;-70
2021/12/24 12:06:00;;;;;;;3.83;3.53;;;;;;;4.94;100.00;100191.47;5022151;28;20458;-70
2021/12/24 12:08:25;;;;;;;4.50;4.10;;;;;;;5.38;100.00;100257.25;5024260;28;20922;-70
2021/12/24 12:10:55;;;;;;;4.70;4.30;;;;;;;5.29;100.00;100261.81;5026864;28;22978;-71
2021/12/24 12:14:01;;;;;;;3.73;3.43;;;;;;;5.24;100.00;100266.06;5024248;28;20710;-71
2021/12/24 12:16:39;;;;;;;4.40;4.00;;;;;;;5.19;100.00;100254.09;5029045;28;20970;-69
2021/12/24 12:19:14;;;;;;;3.60;3.33;;;;;;;5.29;100.00;100259.16;5020338;28;21790;-68
2021/12/24 12:21:51;;;;;;;3.83;3.50;;;;;;;5.27;100.00;100265.69;5023993;28;25111;-68
2021/12/24 12:26:51;;;;;;;5.10;4.70;;;;;;;4.45;100.00;100189.16;5021700;28;20568;-68
2021/12/24 12:29:22;;;;;;;5.90;5.20;;;;;;;5.21;100.00;100267.22;5025253;28;20576;-70
2021/12/24 12:31:55;;;;;;;7.17;6.57;;;;;;;5.16;100.00;100275.72;5017129;28;25131;-69
2021/12/24 12:34:39;;;;;;;6.03;5.43;;;;;;;5.12;100.00;100271.78;5023316;28;20240;-69
2021/12/24 12:37:25;;;;;;;3.63;3.33;;;;;;;5.34;100.00;100259.47;5032516;28;20446;-69
2021/12/24 12:39:53;;;;;;;4.10;3.70;;;;;;;5.06;100.00;100250.38;5033276;28;20473;-70
2021/12/24 12:42:19;;;;;;;3.57;3.30;;;;;;;5.01;100.00;100205.72;5020758;28;20451;-69
2021/12/24 12:44:52;;;;;;;4.20;3.80;;;;;;;5.30;100.00;100260.00;5021087;28;25181;-70
2021/12/24 12:47:28;;;;;;;3.90;3.60;;;;;;;5.32;100.00;100263.31;5025194;28;25097;-69
2021/12/24 12:50:16;;;;;;;4.43;4.07;;;;;;;5.29;100.00;100263.66;5024200;28;25091;-69
2021/12/24 12:52:42;;;;;;;4.20;3.90;;;;;;;4.88;100.00;100205.50;5019921;28;25131;-68
2021/12/24 12:55:28;;;;;;;4.57;4.17;;;;;;;5.12;100.00;100228.38;5026111;28;25116;-69
2021/12/24 12:58:17;;;;;;;4.17;3.80;;;;;;;5.30;100.00;100252.03;5026565;28;25115;-70
2021/12/24 13:01:04;;;;;;;5.43;4.93;;;;;;;5.42;100.00;100278.00;5026671;28;20561;-70
2021/12/24 13:03:31;;;;;;;4.70;4.30;;;;;;;5.15;100.00;100255.47;5024076;28;25152;-70
2021/12/24 13:06:06;;;;;;;5.13;4.67;;;;;;;5.48;100.00;100273.00;5025074;28;20447;-72
2021/12/24 13:08:37;;;;;;;4.60;4.23;;;;;;;5.38;100.00;100282.06;5025334;28;25130;-72
2021/12/24 13:11:06;;;;;;;5.10;4.60;;;;;;;5.36;100.00;100280.56;5027757;28;25099;-72
2021/12/24 13:13:42;;;;;;;4.70;4.30;;;;;;;5.12;100.00;100253.16;5019751;28;20498;-72